createdAt,value
2022-11-17T00:01:21.478Z,98565.13
2022-11-17T00:03:49.797Z,98587.72
2022-11-17T00:06:20.376Z,98591.16
2022-11-17T00:08:47.679Z,98589.38
2022-11-17T00:11:14.939Z,98592.66
2022-11-17T00:14:00.231Z,98570.59
2022-11-17T00:16:26.899Z,98568.75
2022-11-17T00:19:12.455Z,98558.31
2022-11-17T00:21:38.966Z,98527.50
2022-11-17T00:24:05.817Z,98520.03
2022-11-17T00:26:34.568Z,98559.38
2022-11-17T00:29:04.619Z,98569.97
2022-11-17T00:31:51.327Z,98549.88
2022-11-17T00:34:22.735Z,98547.09
2022-11-17T00:36:54.141Z,98540.31
2022-11-17T00:39:22.035Z,98545.38
2022-11-17T00:41:48.792Z,98539.09
2022-11-17T00:44:16.050Z,98557.03
2022-11-17T00:46:43.170Z,98530.38
2022-11-17T00:49:11.127Z,98525.66
2022-11-17T00:51:38.443Z,98531.00
2022-11-17T00:54:07.045Z,98509.41
2022-11-17T00:56:33.831Z,98527.38
2022-11-17T00:59:00.648Z,98530.81
2022-11-17T01:01:27.448Z,98527.19
2022-11-17T01:04:03.501Z,98492.81
2022-11-17T01:06:33.159Z,98501.13
2022-11-17T01:09:05.593Z,98503.69
2022-11-17T01:11:32.418Z,98508.50
2022-11-17T01:14:00.794Z,98509.63
2022-11-17T01:16:28.384Z,98500.22
2022-11-17T01:18:54.982Z,98495.91
2022-11-17T01:21:26.127Z,98514.03
2022-11-17T01:23:55.692Z,98518.28
2022-11-17T01:26:24.975Z,98509.44
2022-11-17T01:28:52.333Z,98492.91
2022-11-17T01:31:24.514Z,98501.22
2022-11-17T01:33:51.924Z,98489.28
2022-11-17T01:36:21.781Z,98481.69
2022-11-17T01:38:48.319Z,98480.72
2022-11-17T01:41:23.516Z,98458.09
2022-11-17T01:44:19.641Z,98469.75
2022-11-17T01:46:46.378Z,98456.28
2022-11-17T01:49:14.907Z,98450.53
2022-11-17T01:51:52.659Z,98433.25
2022-11-17T01:54:23.166Z,98439.03
2022-11-17T01:56:56.030Z,98436.44
2022-11-17T01:59:33.063Z,98433.25
2022-11-17T02:01:59.650Z,98431.78
2022-11-17T02:04:30.793Z,98425.56
2022-11-17T02:07:03.153Z,98422.13
2022-11-17T02:09:29.636Z,98407.31
2022-11-17T02:11:58.690Z,98414.28
2022-11-17T02:14:25.391Z,98417.69
2022-11-17T02:16:52.051Z,98403.53
2022-11-17T02:19:21.219Z,98393.19
2022-11-17T02:21:53.725Z,98394.91
2022-11-17T02:24:38.142Z,98404.75
2022-11-17T02:27:38.450Z,98400.19
2022-11-17T02:30:13.368Z,98382.34
2022-11-17T02:33:03.320Z,98396.16
2022-11-17T02:35:47.626Z,98378.19
2022-11-17T02:38:32.050Z,98367.34
2022-11-17T02:41:12.593Z,98377.84
2022-11-17T02:44:06.405Z,98374.31
2022-11-17T02:46:46.248Z,98376.31
2022-11-17T02:49:20.811Z,98377.84
2022-11-17T02:51:51.738Z,98374.41
2022-11-17T02:54:20.412Z,98358.72
2022-11-17T02:56:46.945Z,98358.63
2022-11-17T02:59:17.532Z,98364.38
2022-11-17T03:01:55.857Z,98372.91
2022-11-17T03:04:37.999Z,98360.53
2022-11-17T03:07:16.813Z,98348.13
2022-11-17T03:10:11.066Z,98350.50
2022-11-17T03:12:47.859Z,98336.69
2022-11-17T03:15:25.350Z,98324.06
2022-11-17T03:18:29.245Z,98312.25
2022-11-17T03:21:21.989Z,98310.72
2022-11-17T03:23:59.787Z,98305.66
2022-11-17T03:26:33.303Z,98311.16
2022-11-17T03:29:01.969Z,98313.72
2022-11-17T03:31:29.670Z,98299.88
2022-11-17T03:33:58.071Z,98295.69
2022-11-17T03:36:32.512Z,98298.22
2022-11-17T03:39:23.864Z,98299.56
2022-11-17T03:41:55.180Z,98296.56
2022-11-17T03:44:24.928Z,98295.78
2022-11-17T03:46:54.463Z,98295.78
2022-11-17T03:49:59.657Z,98302.78
2022-11-17T03:52:29.651Z,98296.56
2022-11-17T03:54:56.795Z,98296.56
2022-11-17T03:57:34.996Z,98298.91
2022-11-17T04:00:14.644Z,98300.44
2022-11-17T04:02:46.951Z,98296.13
2022-11-17T04:05:16.328Z,98299.31
2022-11-17T04:07:44.849Z,98296.44
2022-11-17T04:10:15.975Z,98311.47
2022-11-17T04:13:00.828Z,98294.91
2022-11-17T04:15:46.320Z,98293.38
2022-11-17T04:18:13.783Z,98273.69
2022-11-17T04:20:40.998Z,98300.53
2022-11-17T04:23:16.860Z,98310.06
2022-11-17T04:26:04.671Z,98305.09
2022-11-17T04:28:38.960Z,98298.78
2022-11-17T04:31:23.266Z,98297.78
2022-11-17T04:34:04.133Z,98316.03
2022-11-17T04:36:34.643Z,98305.28
2022-11-17T04:39:01.222Z,98308.81
2022-11-17T04:41:48.359Z,98313.03
2022-11-17T04:44:16.996Z,98318.66
2022-11-17T04:46:44.649Z,98316.00
2022-11-17T04:49:11.531Z,98313.38
2022-11-17T04:51:38.707Z,98313.13
2022-11-17T04:54:06.990Z,98304.72
2022-11-17T04:56:33.520Z,98310.06
2022-11-17T04:59:00.092Z,98319.34
2022-11-17T05:01:28.000Z,98314.59
2022-11-17T05:04:00.415Z,98313.25
2022-11-17T05:06:33.388Z,98320.13
2022-11-17T05:09:02.173Z,98311.47
2022-11-17T05:11:48.446Z,98311.97
2022-11-17T05:14:17.652Z,98304.94
2022-11-17T05:17:08.968Z,98303.53
2022-11-17T05:19:38.103Z,98310.72
2022-11-17T05:22:25.470Z,98314.13
2022-11-17T05:24:52.620Z,98307.84
2022-11-17T05:27:20.083Z,98306.63
2022-11-17T05:29:46.616Z,98305.84
2022-11-17T05:32:13.123Z,98318.53
2022-11-17T05:34:39.598Z,98307.50
2022-11-17T05:37:06.483Z,98300.78
2022-11-17T05:39:32.991Z,98302.44
2022-11-17T05:41:59.481Z,98280.84
2022-11-17T05:44:25.988Z,98279.22
2022-11-17T05:46:52.515Z,98288.84
2022-11-17T05:49:19.027Z,98280.97
2022-11-17T05:51:49.885Z,98285.81
2022-11-17T05:54:18.878Z,98294.88
2022-11-17T05:56:50.838Z,98285.44
2022-11-17T05:59:17.266Z,98295.72
2022-11-17T06:01:53.577Z,98290.00
2022-11-17T06:04:20.692Z,98306.31
2022-11-17T06:06:47.923Z,98298.22
2022-11-17T06:09:15.812Z,98293.22
2022-11-17T06:11:42.457Z,98299.38
2022-11-17T06:14:08.976Z,98302.94
2022-11-17T06:16:43.013Z,98295.38
2022-11-17T06:19:15.720Z,98318.88
2022-11-17T06:22:09.786Z,98326.75
2022-11-17T06:24:28.921Z,98323.38
2022-11-17T06:26:55.489Z,98325.81
2022-11-17T06:29:22.020Z,98335.38
2022-11-17T06:31:48.762Z,98326.41
2022-11-17T06:34:15.371Z,98327.72
2022-11-17T06:36:41.963Z,98334.13
2022-11-17T06:39:08.508Z,98345.25
2022-11-17T06:41:36.711Z,98346.44
2022-11-17T06:44:03.243Z,98349.38
2022-11-17T06:46:38.015Z,98350.66
2022-11-17T06:49:08.339Z,98358.50
2022-11-17T06:51:37.258Z,98360.91
2022-11-17T06:54:08.609Z,98360.50
2022-11-17T06:56:35.332Z,98359.09
2022-11-17T06:59:01.930Z,98368.69
2022-11-17T07:01:28.468Z,98371.06
2022-11-17T07:03:55.061Z,98369.97
2022-11-17T07:06:22.348Z,98383.22
2022-11-17T07:08:49.064Z,98379.34
2022-11-17T07:11:16.693Z,98377.41
2022-11-17T07:13:43.518Z,98383.50
2022-11-17T07:16:17.429Z,98377.13
2022-11-17T07:18:46.873Z,98380.94
2022-11-17T07:21:14.761Z,98379.72
2022-11-17T07:23:43.005Z,98382.47
2022-11-17T07:26:09.678Z,98394.53
2022-11-17T07:28:36.580Z,98391.88
2022-11-17T07:31:08.051Z,98389.53
2022-11-17T07:33:35.374Z,98401.00
2022-11-17T07:36:04.605Z,98407.19
2022-11-17T07:38:33.011Z,98391.59
2022-11-17T07:41:00.861Z,98402.47
2022-11-17T07:43:27.730Z,98409.97
2022-11-17T07:45:54.627Z,98411.94
2022-11-17T07:48:21.186Z,98405.75
2022-11-17T07:50:48.363Z,98422.63
2022-11-17T07:53:15.477Z,98426.44
2022-11-17T07:55:42.015Z,98420.31
2022-11-17T07:58:08.609Z,98427.97
2022-11-17T08:00:35.212Z,98426.41
2022-11-17T08:03:04.229Z,98437.09
2022-11-17T08:05:32.334Z,98436.66
2022-11-17T08:08:00.316Z,98449.69
2022-11-17T08:10:31.001Z,98456.41
2022-11-17T08:13:00.780Z,98449.31
2022-11-17T08:15:28.455Z,98469.84
2022-11-17T08:17:56.728Z,98469.84
2022-11-17T08:20:24.852Z,98476.81
2022-11-17T08:22:52.850Z,98473.91
2022-11-17T08:25:20.762Z,98488.09
2022-11-17T08:27:51.956Z,98475.69
2022-11-17T08:30:20.616Z,98492.84
2022-11-17T08:32:52.090Z,98472.19
2022-11-17T08:35:21.270Z,98487.31
2022-11-17T08:37:48.008Z,98497.66
2022-11-17T08:40:15.470Z,98488.63
2022-11-17T08:42:42.099Z,98499.56
2022-11-17T08:45:09.215Z,98503.50
2022-11-17T08:47:36.217Z,98502.41
2022-11-17T08:50:03.398Z,98503.09
2022-11-17T08:52:29.982Z,98513.34
2022-11-17T08:54:56.551Z,98506.41
2022-11-17T08:57:23.264Z,98501.75
2022-11-17T08:59:50.198Z,98503.72
2022-11-17T09:02:17.435Z,98499.06
2022-11-17T09:04:46.145Z,98507.34
2022-11-17T09:07:12.849Z,98511.31
2022-11-17T09:09:39.509Z,98519.84
2022-11-17T09:12:06.589Z,98517.53
2022-11-17T09:14:33.298Z,98538.94
2022-11-17T09:16:59.933Z,98517.03
2022-11-17T09:19:26.903Z,98535.25
2022-11-17T09:21:53.490Z,98535.34
2022-11-17T09:24:20.075Z,98540.47
2022-11-17T09:26:46.842Z,98530.22
2022-11-17T09:29:13.427Z,98532.22
2022-11-17T09:31:40.089Z,98539.78
2022-11-17T09:34:06.897Z,98527.84
2022-11-17T09:36:33.898Z,98546.56
2022-11-17T09:39:01.012Z,98533.56
2022-11-17T09:41:32.559Z,98536.72
2022-11-17T09:44:05.234Z,98541.22
2022-11-17T09:46:37.719Z,98539.88
2022-11-17T09:49:30.448Z,98541.34
2022-11-17T09:52:01.044Z,98540.00
2022-11-17T09:54:39.015Z,98533.28
2022-11-17T09:57:13.004Z,98525.75
2022-11-17T09:59:39.705Z,98540.88
2022-11-17T10:02:10.679Z,98534.84
2022-11-17T10:04:37.321Z,98527.69
2022-11-17T10:07:04.201Z,98530.91
2022-11-17T10:09:43.271Z,98508.97
2022-11-17T10:12:22.140Z,98516.22
2022-11-17T10:14:49.523Z,98526.81
2022-11-17T10:17:16.069Z,98508.38
2022-11-17T10:19:45.120Z,98521.47
2022-11-17T10:22:34.672Z,98516.31
2022-11-17T10:25:01.204Z,98523.75
2022-11-17T10:27:32.099Z,98533.41
2022-11-17T10:30:23.559Z,98542.53
2022-11-17T10:32:58.801Z,98533.56
2022-11-17T10:35:27.440Z,98537.69
2022-11-17T10:38:29.055Z,98546.00
2022-11-17T10:40:59.158Z,98553.41
2022-11-17T10:43:35.492Z,98545.66
2022-11-17T10:46:12.718Z,98570.31
2022-11-17T10:48:53.712Z,98587.19
2022-11-17T10:51:20.188Z,98584.69
2022-11-17T10:54:16.074Z,98585.53
2022-11-17T10:56:47.610Z,98593.59
2022-11-17T10:59:33.376Z,98586.00
2022-11-17T11:02:35.774Z,98591.72
2022-11-17T11:05:19.057Z,98591.19
2022-11-17T11:07:45.744Z,98569.66
2022-11-17T11:10:18.300Z,98572.75
2022-11-17T11:12:54.172Z,98570.69
2022-11-17T11:15:24.241Z,98556.09
2022-11-17T11:17:51.572Z,98563.50
2022-11-17T11:20:21.352Z,98572.91
2022-11-17T11:23:18.230Z,98564.53
2022-11-17T11:25:52.386Z,98550.91
2022-11-17T11:28:40.048Z,98560.06
2022-11-17T11:31:13.925Z,98562.06
2022-11-17T11:34:15.438Z,98564.41
2022-11-17T11:36:53.658Z,98557.75
2022-11-17T11:39:40.924Z,98576.22
2022-11-17T11:42:10.476Z,98570.41
2022-11-17T11:44:46.074Z,98566.88
2022-11-17T11:47:37.336Z,98578.25
2022-11-17T11:50:15.726Z,98559.81
2022-11-17T11:52:48.509Z,98575.50
2022-11-17T11:55:36.409Z,98576.63
2022-11-17T11:58:22.615Z,98579.84
2022-11-17T12:00:53.439Z,98580.03
2022-11-17T12:03:34.101Z,98587.50
2022-11-17T12:06:40.127Z,98607.56
2022-11-17T12:09:34.283Z,98619.53
2022-11-17T12:12:07.956Z,98615.75
2022-11-17T12:14:37.108Z,98628.81
2022-11-17T12:17:18.651Z,98630.84
2022-11-17T12:19:59.649Z,98633.78
2022-11-17T12:22:29.222Z,98630.44
2022-11-17T12:25:00.063Z,98627.31
2022-11-17T12:27:35.840Z,98631.47
2022-11-17T12:30:04.986Z,98632.50
2022-11-17T12:32:49.708Z,98618.34
2022-11-17T12:35:29.970Z,98628.44
2022-11-17T12:38:16.848Z,98631.09
2022-11-17T12:40:51.519Z,98624.25
2022-11-17T12:43:28.096Z,98616.44
2022-11-17T12:46:04.746Z,98623.19
2022-11-17T12:48:39.953Z,98619.38
2022-11-17T12:51:21.909Z,98627.84
2022-11-17T12:54:03.553Z,98627.84
2022-11-17T12:56:37.783Z,98630.06
2022-11-17T12:59:17.475Z,98656.69
2022-11-17T13:02:04.096Z,98645.13
2022-11-17T13:04:37.182Z,98645.63
2022-11-17T13:07:08.717Z,98643.66
2022-11-17T13:09:36.637Z,98638.88
2022-11-17T13:12:08.198Z,98642.50
2022-11-17T13:14:36.683Z,98644.63
2022-11-17T13:17:03.934Z,98637.22
2022-11-17T13:19:32.956Z,98650.00
2022-11-17T13:22:02.015Z,98644.13
2022-11-17T13:24:31.313Z,98657.56
2022-11-17T13:27:02.663Z,98656.88
2022-11-17T13:29:29.531Z,98659.31
2022-11-17T13:32:12.747Z,98664.22
2022-11-17T13:34:48.241Z,98659.81
2022-11-17T13:37:17.733Z,98666.47
2022-11-17T13:39:59.062Z,98662.56
2022-11-17T13:42:29.553Z,98664.38
2022-11-17T13:44:58.852Z,98668.00
2022-11-17T13:47:45.629Z,98680.97
2022-11-17T13:50:27.405Z,98692.56
2022-11-17T13:53:06.327Z,98681.75
2022-11-17T13:55:34.220Z,98684.09
2022-11-17T13:58:06.952Z,98689.63
2022-11-17T14:00:34.118Z,98687.56
2022-11-17T14:03:44.537Z,98699.81
2022-11-17T14:06:13.436Z,98696.63
2022-11-17T14:08:42.672Z,98702.59
2022-11-17T14:11:11.953Z,98698.88
2022-11-17T14:13:42.382Z,98711.06
2022-11-17T14:16:32.918Z,98718.34
2022-11-17T14:19:25.211Z,98708.16
2022-11-17T14:22:08.901Z,98711.84
2022-11-17T14:24:36.501Z,98716.47
2022-11-17T14:27:12.069Z,98724.41
2022-11-17T14:29:39.047Z,98730.28
2022-11-17T14:32:05.717Z,98732.25
2022-11-17T14:34:32.387Z,98738.75
2022-11-17T14:36:59.031Z,98730.81
2022-11-17T14:39:25.569Z,98734.69
2022-11-17T14:41:52.169Z,98732.34
2022-11-17T14:44:18.801Z,98748.53
2022-11-17T14:46:45.345Z,98745.50
2022-11-17T14:49:11.976Z,98739.97
2022-11-17T14:51:38.936Z,98762.63
2022-11-17T14:54:05.698Z,98765.47
2022-11-17T14:56:32.336Z,98758.75
2022-11-17T14:58:59.679Z,98762.19
2022-11-17T15:01:34.847Z,98759.16
2022-11-17T15:04:20.651Z,98770.22
2022-11-17T15:06:49.458Z,98773.25
2022-11-17T15:09:16.509Z,98776.63
2022-11-17T15:11:43.136Z,98768.41
2022-11-17T15:14:10.908Z,98777.75
2022-11-17T15:16:37.509Z,98779.66
2022-11-17T15:19:04.199Z,98782.31
2022-11-17T15:21:30.721Z,98780.09
2022-11-17T15:23:57.322Z,98791.50
2022-11-17T15:26:23.965Z,98774.22
2022-11-17T15:28:50.681Z,98782.16
2022-11-17T15:31:20.198Z,98778.88
2022-11-17T15:33:47.887Z,98793.75
2022-11-17T15:36:17.582Z,98791.94
2022-11-17T15:38:44.471Z,98803.78
2022-11-17T15:41:12.809Z,98805.84
2022-11-17T15:43:41.039Z,98812.59
2022-11-17T15:46:10.228Z,98803.09
2022-11-17T15:48:40.090Z,98811.91
2022-11-17T15:51:10.526Z,98806.53
2022-11-17T15:53:38.626Z,98801.78
2022-11-17T15:56:07.804Z,98812.25
2022-11-17T15:58:34.885Z,98812.59
2022-11-17T16:01:29.153Z,98813.28
2022-11-17T16:04:02.799Z,98801.31
2022-11-17T16:06:30.534Z,98819.94
2022-11-17T16:08:57.686Z,98823.44
2022-11-17T16:11:26.888Z,98831.94
2022-11-17T16:13:54.964Z,98831.59
2022-11-17T16:16:22.127Z,98832.03
2022-11-17T16:18:48.672Z,98842.56
2022-11-17T16:21:16.507Z,98839.88
2022-11-17T16:23:45.743Z,98835.03
2022-11-17T16:26:14.517Z,98843.50
2022-11-17T16:28:41.205Z,98846.00
2022-11-17T16:31:22.443Z,98850.75
2022-11-17T16:33:52.987Z,98854.66
2022-11-17T16:36:21.943Z,98860.81
2022-11-17T16:39:02.103Z,98860.38
2022-11-17T16:41:32.143Z,98868.75
2022-11-17T16:43:59.046Z,98862.66
2022-11-17T16:46:31.201Z,98867.19
2022-11-17T16:49:02.260Z,98867.94
2022-11-17T16:51:29.156Z,98876.25
2022-11-17T16:53:57.921Z,98883.00
2022-11-17T16:56:24.810Z,98871.28
2022-11-17T16:58:52.310Z,98880.88
2022-11-17T17:01:21.488Z,98888.78
2022-11-17T17:03:48.360Z,98889.94
2022-11-17T17:06:16.999Z,98890.00
2022-11-17T17:08:43.646Z,98890.69
2022-11-17T17:11:13.198Z,98891.69
2022-11-17T17:13:40.656Z,98901.28
2022-11-17T17:16:10.196Z,98913.41
2022-11-17T17:18:37.271Z,98911.19
2022-11-17T17:21:04.352Z,98915.09
2022-11-17T17:23:31.691Z,98924.38
2022-11-17T17:26:09.802Z,98925.00
2022-11-17T17:28:40.496Z,98931.81
2022-11-17T17:31:08.253Z,98938.97
2022-11-17T17:33:36.842Z,98935.06
2022-11-17T17:36:08.953Z,98932.34
2022-11-17T17:38:35.954Z,98948.09
2022-11-17T17:41:09.812Z,98950.13
2022-11-17T17:43:36.658Z,98942.75
2022-11-17T17:46:12.821Z,98953.75
2022-11-17T17:48:43.476Z,98950.34
2022-11-17T17:51:14.989Z,98948.88
2022-11-17T17:53:42.222Z,98949.72
2022-11-17T17:56:11.793Z,98951.31
2022-11-17T17:58:42.340Z,98956.78
2022-11-17T18:01:17.606Z,98964.84
2022-11-17T18:03:45.871Z,98970.78
2022-11-17T18:06:13.739Z,98982.69
2022-11-17T18:08:40.514Z,98979.25
2022-11-17T18:11:09.968Z,98980.88
2022-11-17T18:13:39.064Z,98989.53
2022-11-17T18:16:08.087Z,98992.28
2022-11-17T18:18:36.319Z,98993.06
2022-11-17T18:21:06.018Z,98990.47
2022-11-17T18:23:34.453Z,99006.25
2022-11-17T18:26:34.395Z,99006.31
2022-11-17T18:29:02.312Z,99014.13
2022-11-17T18:31:31.079Z,99001.16
2022-11-17T18:34:00.481Z,99011.06
2022-11-17T18:36:28.409Z,99011.94
2022-11-17T18:38:56.737Z,99004.75
2022-11-17T18:41:23.753Z,99014.59
2022-11-17T18:43:50.447Z,99020.22
2022-11-17T18:46:19.606Z,99028.88
2022-11-17T18:48:47.988Z,99022.94
2022-11-17T18:51:20.824Z,99041.22
2022-11-17T18:53:52.762Z,99032.63
2022-11-17T18:56:22.608Z,99044.34
2022-11-17T18:58:49.455Z,99044.34
2022-11-17T19:01:21.715Z,99029.34
2022-11-17T19:03:53.537Z,99051.88
2022-11-17T19:06:22.040Z,99053.53
2022-11-17T19:08:49.353Z,99051.88
2022-11-17T19:11:17.189Z,99056.22
2022-11-17T19:13:44.746Z,99057.13
2022-11-17T19:16:15.467Z,99062.25
2022-11-17T19:18:43.174Z,99057.91
2022-11-17T19:21:21.749Z,99067.38
2022-11-17T19:23:51.955Z,99070.47
2022-11-17T19:26:20.580Z,99072.63
2022-11-17T19:28:47.877Z,99070.22
2022-11-17T19:31:17.328Z,99076.22
2022-11-17T19:33:45.118Z,99081.72
2022-11-17T19:36:16.856Z,99078.63
2022-11-17T19:38:45.513Z,99079.78
2022-11-17T19:41:14.293Z,99086.91
2022-11-17T19:43:45.120Z,99085.09
2022-11-17T19:46:14.783Z,99098.81
2022-11-17T19:48:42.873Z,99103.91
2022-11-17T19:51:13.746Z,99105.63
2022-11-17T19:53:40.736Z,99105.22
2022-11-17T19:56:07.787Z,99110.69
2022-11-17T19:58:34.635Z,99106.72
2022-11-17T20:01:18.252Z,99114.31
2022-11-17T20:03:46.275Z,99114.41
2022-11-17T20:06:15.230Z,99117.50
2022-11-17T20:08:42.009Z,99116.44
2022-11-17T20:11:12.497Z,99125.44
2022-11-17T20:13:39.751Z,99128.59
2022-11-17T20:16:12.381Z,99120.75
2022-11-17T20:18:40.835Z,99127.41
2022-11-17T20:21:08.337Z,99142.75
2022-11-17T20:23:36.282Z,99137.28
2022-11-17T20:26:08.226Z,99145.22
2022-11-17T20:28:36.087Z,99142.94
2022-11-17T20:31:10.883Z,99157.03
2022-11-17T20:33:38.492Z,99162.53
2022-11-17T20:36:06.724Z,99159.81
2022-11-17T20:38:33.258Z,99170.56
2022-11-17T20:41:00.720Z,99167.41
2022-11-17T20:43:28.608Z,99178.78
2022-11-17T20:45:56.552Z,99181.84
2022-11-17T20:48:24.171Z,99178.81
2022-11-17T20:51:00.684Z,99189.50
2022-11-17T20:53:28.455Z,99198.16
2022-11-17T20:55:56.552Z,99206.00
2022-11-17T20:58:24.334Z,99202.50
2022-11-17T21:00:51.250Z,99202.84
2022-11-17T21:03:18.235Z,99209.63
2022-11-17T21:05:57.056Z,99209.28
2022-11-17T21:08:26.188Z,99209.28
2022-11-17T21:10:56.855Z,99214.03
2022-11-17T21:13:24.288Z,99223.38
2022-11-17T21:16:20.068Z,99237.59
2022-11-17T21:18:48.205Z,99238.09
2022-11-17T21:21:15.544Z,99237.69
2022-11-17T21:23:43.941Z,99244.75
2022-11-17T21:26:19.719Z,99248.75
2022-11-17T21:28:46.920Z,99251.16
2022-11-17T21:31:18.966Z,99262.94
2022-11-17T21:33:46.637Z,99262.59
2022-11-17T21:36:17.530Z,99257.50
2022-11-17T21:38:45.531Z,99267.00
2022-11-17T21:41:22.650Z,99278.44
2022-11-17T21:43:51.141Z,99278.41
2022-11-17T21:46:20.193Z,99285.03
2022-11-17T21:48:47.787Z,99283.97
2022-11-17T21:51:20.757Z,99285.19
2022-11-17T21:53:47.722Z,99293.06
2022-11-17T21:56:14.499Z,99298.19
2022-11-17T21:58:41.325Z,99286.81
2022-11-17T22:01:13.709Z,99296.63
2022-11-17T22:03:41.559Z,99296.63
2022-11-17T22:06:13.908Z,99298.28
2022-11-17T22:08:42.679Z,99292.75
2022-11-17T22:11:11.816Z,99315.97
2022-11-17T22:13:38.990Z,99311.25
2022-11-17T22:16:12.203Z,99317.16
2022-11-17T22:18:39.170Z,99314.78
2022-11-17T22:21:06.950Z,99326.19
2022-11-17T22:23:34.346Z,99327.78
2022-11-17T22:26:05.633Z,99327.78
2022-11-17T22:28:32.399Z,99319.13
2022-11-17T22:30:59.469Z,99330.97
2022-11-17T22:33:26.238Z,99330.97
2022-11-17T22:35:52.873Z,99338.03
2022-11-17T22:38:19.455Z,99349.84
2022-11-17T22:40:46.037Z,99350.63
2022-11-17T22:43:15.543Z,99365.19
2022-11-17T22:45:42.636Z,99355.41
2022-11-17T22:48:09.272Z,99367.94
2022-11-17T22:50:36.204Z,99360.91
2022-11-17T22:53:03.096Z,99360.50
2022-11-17T22:55:30.187Z,99371.09
2022-11-17T22:57:56.749Z,99375.03
2022-11-17T23:00:23.462Z,99380.16
2022-11-17T23:02:50.133Z,99382.09
2022-11-17T23:05:16.969Z,99390.75
2022-11-17T23:07:44.090Z,99386.47
2022-11-17T23:10:11.447Z,99397.84
2022-11-17T23:12:38.318Z,99395.88
2022-11-17T23:15:06.134Z,99400.19
2022-11-17T23:17:32.707Z,99398.25
2022-11-17T23:19:59.588Z,99412.00
2022-11-17T23:22:27.292Z,99417.91
2022-11-17T23:24:53.866Z,99421.44
2022-11-17T23:27:20.437Z,99417.91
2022-11-17T23:29:46.996Z,99423.81
2022-11-17T23:32:13.552Z,99433.22
2022-11-17T23:34:40.247Z,99430.47
2022-11-17T23:37:06.777Z,99427.72
2022-11-17T23:39:33.491Z,99425.38
2022-11-17T23:42:00.123Z,99446.97
2022-11-17T23:44:26.617Z,99441.88
2022-11-17T23:46:53.187Z,99440.31
2022-11-17T23:49:19.981Z,99451.69
2022-11-17T23:51:46.679Z,99461.13
2022-11-17T23:54:13.539Z,99457.22
2022-11-17T23:56:40.242Z,99461.91
2022-11-17T23:59:08.108Z,99466.28
